Time,TemperatureF,DewpointF,PressureIn,WindDirection,WindDirectionDegrees,WindSpeedMPH,WindSpeedGustMPH,Humidity,HourlyPrecipIn,Conditions,Clouds,dailyrainin,SolarRadiationWatts/m^2,SoftwareType,DateUTC
2013-07-31 00:05:00,78.0,75.5,30.04,SSW,194,0.0,0.0,92,0.00,,,0.00,0,Wunderground v.1.15,2013-07-31 05:05:00,
2013-07-31 00:10:00,77.9,75.4,30.03,SSW,194,0.0,0.0,92,0.00,,,0.00,0,Wunderground v.1.15,2013-07-31 05:10:00,
2013-07-31 00:15:00,77.9,75.4,30.04,SSW,194,0.0,0.0,92,0.00,,,0.00,0,Wunderground v.1.15,2013-07-31 05:15:00,
2013-07-31 00:20:00,77.8,75.3,30.04,SSW,194,0.0,0.0,92,0.00,,,0.00,0,Wunderground v.1.15,2013-07-31 05:20:00,
2013-07-31 00:27:00,77.8,75.6,30.03,SSW,194,0.0,0.0,93,0.00,,,0.00,0,Wunderground v.1.15,2013-07-31 05:27:00,
2013-07-31 00:33:00,77.7,75.5,30.03,SSW,194,0.0,0.0,93,0.00,,,0.00,0,Wunderground v.1.15,2013-07-31 05:33:00,
2013-07-31 00:38:00,77.7,75.5,30.03,SSW,194,0.0,0.0,93,0.00,,,0.00,0,Wunderground v.1.15,2013-07-31 05:38:00,
2013-07-31 00:43:00,77.6,75.4,30.03,SSW,194,0.0,0.0,93,0.00,,,0.00,0,Wunderground v.1.15,2013-07-31 05:43:00,
2013-07-31 00:48:00,77.6,75.4,30.03,SSW,194,0.0,0.0,93,0.00,,,0.00,0,Wunderground v.1.15,2013-07-31 05:48:00,
2013-07-31 00:54:00,77.5,75.3,30.03,SSW,194,0.0,0.0,93,0.00,,,0.00,0,Wunderground v.1.15,2013-07-31 05:54:00,
2013-07-31 00:59:00,77.5,75.6,30.02,SSW,194,0.0,0.0,94,0.00,,,0.00,0,Wunderground v.1.15,2013-07-31 05:59:00,
2013-07-31 01:04:00,77.4,75.5,30.02,SSW,194,0.0,0.0,94,0.00,,,0.00,0,Wunderground v.1.15,2013-07-31 06:04:00,
2013-07-31 01:09:00,77.4,75.5,30.02,SSW,194,0.0,0.0,94,0.00,,,0.00,0,Wunderground v.1.15,2013-07-31 06:09:00,
2013-07-31 01:14:00,77.4,75.5,30.02,SSW,194,0.0,0.0,94,0.00,,,0.00,0,Wunderground v.1.15,2013-07-31 06:14:00,
2013-07-31 01:20:00,77.4,75.5,30.02,SSW,194,0.0,0.0,94,0.00,,,0.00,0,Wunderground v.1.15,2013-07-31 06:20:00,
2013-07-31 01:25:00,77.4,75.5,30.02,SSW,194,0.0,0.0,94,0.00,,,0.00,0,Wunderground v.1.15,2013-07-31 06:25:00,
2013-07-31 01:30:00,77.4,75.5,30.02,SSW,194,0.0,0.0,94,0.00,,,0.00,0,Wunderground v.1.15,2013-07-31 06:30:00,
2013-07-31 01:35:00,77.4,75.5,30.02,SSW,194,0.0,0.0,94,0.00,,,0.00,0,Wunderground v.1.15,2013-07-31 06:35:00,
2013-07-31 01:40:00,77.4,75.5,30.02,SSW,194,0.0,0.0,94,0.00,,,0.00,0,Wunderground v.1.15,2013-07-31 06:40:00,
2013-07-31 01:46:00,77.5,75.6,30.02,SSW,202,0.0,3.0,94,0.00,,,0.00,0,Wunderground v.1.15,2013-07-31 06:46:00,
2013-07-31 01:51:00,77.5,75.6,30.02,SSW,203,0.0,3.0,94,0.00,,,0.00,0,Wunderground v.1.15,2013-07-31 06:51:00,
2013-07-31 01:57:00,77.6,75.7,30.02,SSW,204,0.0,0.0,94,0.00,,,0.00,0,Wunderground v.1.15,2013-07-31 06:57:00,
2013-07-31 02:02:00,77.6,75.7,30.02,SSW,204,0.0,0.0,94,0.00,,,0.00,0,Wunderground v.1.15,2013-07-31 07:02:00,
2013-07-31 02:11:00,77.5,75.6,30.02,SSW,205,0.0,0.0,94,0.00,,,0.00,0,Wunderground v.1.15,2013-07-31 07:11:00,
2013-07-31 02:30:00,77.4,75.5,30.02,SSW,205,0.0,0.0,94,0.00,,,0.00,0,Wunderground v.1.15,2013-07-31 07:30:00,
2013-07-31 02:41:00,77.3,75.4,30.02,SSW,205,0.0,0.0,94,0.00,,,0.00,0,Wunderground v.1.15,2013-07-31 07:41:00,
2013-07-31 02:48:00,77.3,75.4,30.02,SSW,205,0.0,0.0,94,0.00,,,0.00,0,Wunderground v.1.15,2013-07-31 07:48:00,
2013-07-31 03:54:00,77.0,75.5,30.01,SSW,212,0.0,0.0,95,0.00,,,0.00,0,Wunderground v.1.15,2013-07-31 08:54:00,
2013-07-31 04:05:00,76.9,75.4,30.01,SSW,212,0.0,0.0,95,0.00,,,0.00,0,Wunderground v.1.15,2013-07-31 09:05:00,
2013-07-31 04:39:00,76.5,75.0,30.02,SW,223,0.0,2.0,95,0.00,,,0.00,0,Wunderground v.1.15,2013-07-31 09:39:00,
2013-07-31 04:44:00,76.4,74.9,30.02,SW,223,0.0,2.0,95,0.00,,,0.00,0,Wunderground v.1.15,2013-07-31 09:44:00,
2013-07-31 04:49:00,76.4,74.9,30.02,SW,223,0.0,2.0,95,0.00,,,0.00,0,Wunderground v.1.15,2013-07-31 09:49:00,
2013-07-31 04:54:00,76.3,74.8,30.02,SW,223,0.0,0.0,95,0.00,,,0.00,0,Wunderground v.1.15,2013-07-31 09:54:00,
2013-07-31 04:59:00,76.3,74.8,30.02,SW,227,0.0,0.0,95,0.00,,,0.00,0,Wunderground v.1.15,2013-07-31 09:59:00,
2013-07-31 05:04:00,76.2,74.7,30.02,SW,227,0.0,1.0,95,0.00,,,0.00,0,Wunderground v.1.15,2013-07-31 10:04:00,
2013-07-31 05:09:00,76.2,74.7,30.02,SW,227,0.0,1.0,95,0.00,,,0.00,0,Wunderground v.1.15,2013-07-31 10:09:00,
2013-07-31 05:14:00,76.2,74.7,30.02,SW,227,0.0,0.0,95,0.00,,,0.00,0,Wunderground v.1.15,2013-07-31 10:14:00,
2013-07-31 05:19:00,76.1,74.6,30.02,SW,227,0.0,2.0,95,0.00,,,0.00,0,Wunderground v.1.15,2013-07-31 10:19:00,
2013-07-31 05:25:00,76.1,74.6,30.02,SW,227,0.0,0.0,95,0.00,,,0.00,0,Wunderground v.1.15,2013-07-31 10:25:00,
2013-07-31 05:31:00,76.1,74.6,30.02,SW,227,0.0,0.0,95,0.00,,,0.00,0,Wunderground v.1.15,2013-07-31 10:31:00,
2013-07-31 05:36:00,76.0,74.5,30.02,SW,227,0.0,0.0,95,0.00,,,0.00,0,Wunderground v.1.15,2013-07-31 10:36:00,
2013-07-31 05:41:00,75.9,74.4,30.02,SW,227,0.0,0.0,95,0.00,,,0.00,0,Wunderground v.1.15,2013-07-31 10:41:00,
2013-07-31 05:46:00,75.8,74.3,30.03,SW,227,0.0,0.0,95,0.00,,,0.00,0,Wunderground v.1.15,2013-07-31 10:46:00,
2013-07-31 05:52:00,75.8,74.3,30.03,SW,227,0.0,0.0,95,0.00,,,0.00,0,Wunderground v.1.15,2013-07-31 10:52:00,
2013-07-31 05:57:00,75.7,74.2,30.04,SW,227,0.0,0.0,95,0.00,,,0.00,0,Wunderground v.1.15,2013-07-31 10:57:00,
2013-07-31 06:03:00,75.6,74.1,30.04,SW,227,0.0,0.0,95,0.00,,,0.00,0,Wunderground v.1.15,2013-07-31 11:03:00,
2013-07-31 06:48:00,75.5,74.0,30.04,SW,231,0.0,1.0,95,0.00,,,0.00,28,Wunderground v.1.15,2013-07-31 11:48:00,
2013-07-31 07:04:00,75.5,74.0,30.05,SW,231,0.0,0.0,95,0.00,,,0.00,49,Wunderground v.1.15,2013-07-31 12:04:00,
2013-07-31 07:09:00,75.6,74.1,30.05,SW,231,0.0,0.0,95,0.00,,,0.00,56,Wunderground v.1.15,2013-07-31 12:09:00,
2013-07-31 07:15:00,75.6,74.1,30.05,SW,231,0.0,0.0,95,0.00,,,0.00,62,Wunderground v.1.15,2013-07-31 12:15:00,
2013-07-31 07:20:00,75.7,74.2,30.05,WSW,241,0.0,2.0,95,0.00,,,0.00,67,Wunderground v.1.15,2013-07-31 12:20:00,
2013-07-31 07:25:00,75.7,74.2,30.05,WSW,241,0.0,0.0,95,0.00,,,0.00,79,Wunderground v.1.15,2013-07-31 12:25:00,
2013-07-31 07:31:00,75.7,74.2,30.05,WSW,244,0.0,0.0,95,0.00,,,0.00,88,Wunderground v.1.15,2013-07-31 12:31:00,
2013-07-31 07:36:00,75.8,74.3,30.05,WSW,245,0.0,0.0,95,0.00,,,0.00,93,Wunderground v.1.15,2013-07-31 12:36:00,
2013-07-31 07:41:00,75.9,74.4,30.05,WSW,246,0.0,0.0,95,0.00,,,0.00,98,Wunderground v.1.15,2013-07-31 12:41:00,
2013-07-31 07:46:00,76.0,74.5,30.05,WSW,248,0.0,0.0,95,0.00,,,0.00,90,Wunderground v.1.15,2013-07-31 12:46:00,
2013-07-31 07:52:00,76.0,74.5,30.06,WSW,256,0.0,0.0,95,0.00,,,0.00,111,Wunderground v.1.15,2013-07-31 12:52:00,
2013-07-31 07:57:00,76.1,74.2,30.06,West,262,0.0,0.0,94,0.00,,,0.00,128,Wunderground v.1.15,2013-07-31 12:57:00,
2013-07-31 08:03:00,76.2,74.3,30.06,West,275,0.0,0.0,94,0.00,,,0.00,128,Wunderground v.1.15,2013-07-31 13:03:00,
2013-07-31 08:08:00,76.4,74.5,30.06,West,281,0.0,0.0,94,0.00,,,0.00,334,Wunderground v.1.15,2013-07-31 13:08:00,
2013-07-31 08:13:00,76.7,74.5,30.06,WNW,283,0.0,4.0,93,0.00,,,0.00,343,Wunderground v.1.15,2013-07-31 13:13:00,
2013-07-31 08:18:00,77.2,75.0,30.06,WNW,300,0.0,4.0,93,0.00,,,0.00,355,Wunderground v.1.15,2013-07-31 13:18:00,
2013-07-31 08:23:00,77.6,75.1,30.06,West,272,1.0,2.0,92,0.00,,,0.00,366,Wunderground v.1.15,2013-07-31 13:23:00,
2013-07-31 08:28:00,78.2,75.4,30.06,West,274,1.0,5.0,91,0.00,,,0.00,374,Wunderground v.1.15,2013-07-31 13:28:00,
2013-07-31 08:34:00,78.7,75.5,30.06,SW,229,0.0,0.0,90,0.00,,,0.00,373,Wunderground v.1.15,2013-07-31 13:34:00,
2013-07-31 08:39:00,79.1,75.6,30.06,West,264,0.0,2.0,89,0.00,,,0.00,380,Wunderground v.1.15,2013-07-31 13:39:00,
2013-07-31 08:44:00,79.5,75.3,30.06,WSW,257,1.0,8.0,87,0.00,,,0.00,396,Wunderground v.1.15,2013-07-31 13:44:00,
2013-07-31 08:49:00,79.8,75.2,30.06,NW,304,1.0,8.0,86,0.00,,,0.00,408,Wunderground v.1.15,2013-07-31 13:49:00,
2013-07-31 08:54:00,80.0,75.4,30.06,West,278,1.0,1.0,86,0.00,,,0.00,420,Wunderground v.1.15,2013-07-31 13:54:00,
2013-07-31 08:59:00,80.2,75.3,30.06,WSW,257,1.0,2.0,85,0.00,,,0.00,443,Wunderground v.1.15,2013-07-31 13:59:00,
2013-07-31 09:04:00,80.4,75.5,30.06,West,264,1.0,1.0,85,0.00,,,0.00,468,Wunderground v.1.15,2013-07-31 14:04:00,
2013-07-31 09:10:00,80.6,75.3,30.06,West,272,0.0,2.0,84,0.00,,,0.00,519,Wunderground v.1.15,2013-07-31 14:10:00,
2013-07-31 09:15:00,81.0,75.3,30.07,WNW,285,0.0,0.0,83,0.00,,,0.00,466,Wunderground v.1.15,2013-07-31 14:15:00,
2013-07-31 09:20:00,81.3,74.9,30.07,NW,316,0.0,1.0,81,0.00,,,0.00,422,Wunderground v.1.15,2013-07-31 14:20:00,
2013-07-31 09:25:00,81.3,74.5,30.06,WNW,285,1.0,8.0,80,0.00,,,0.00,575,Wunderground v.1.15,2013-07-31 14:25:00,
2013-07-31 09:30:00,81.3,73.8,30.07,WNW,301,1.0,8.0,78,0.00,,,0.00,617,Wunderground v.1.15,2013-07-31 14:30:00,
2013-07-31 09:36:00,81.5,74.4,30.07,West,278,1.0,2.0,79,0.00,,,0.00,578,Wunderground v.1.15,2013-07-31 14:36:00,
2013-07-31 09:41:00,81.9,74.0,30.07,West,268,1.0,1.0,77,0.00,,,0.00,615,Wunderground v.1.15,2013-07-31 14:41:00,
2013-07-31 09:46:00,81.9,74.0,30.06,West,272,1.0,1.0,77,0.00,,,0.00,615,Wunderground v.1.15,2013-07-31 14:46:00,
2013-07-31 09:51:00,81.9,74.0,30.06,WNW,302,1.0,1.0,77,0.00,,,0.00,626,Wunderground v.1.15,2013-07-31 14:51:00,
2013-07-31 09:57:00,82.1,74.6,30.06,West,279,1.0,5.0,78,0.00,,,0.00,656,Wunderground v.1.15,2013-07-31 14:57:00,
2013-07-31 10:02:00,82.3,74.0,30.06,WNW,289,1.0,7.0,76,0.00,,,0.00,666,Wunderground v.1.15,2013-07-31 15:02:00,
2013-07-31 10:07:00,82.5,74.9,30.06,West,273,1.0,7.0,78,0.00,,,0.00,538,Wunderground v.1.15,2013-07-31 15:07:00,
2013-07-31 10:13:00,82.9,75.3,30.06,WNW,282,0.0,3.0,78,0.00,,,0.00,752,Wunderground v.1.15,2013-07-31 15:13:00,
2013-07-31 10:18:00,83.1,74.7,30.06,WSW,238,0.0,5.0,76,0.00,,,0.00,668,Wunderground v.1.15,2013-07-31 15:18:00,
2013-07-31 10:23:00,83.2,74.4,30.06,WSW,256,0.0,5.0,75,0.00,,,0.00,717,Wunderground v.1.15,2013-07-31 15:23:00,
2013-07-31 10:29:00,83.3,74.9,30.06,West,281,1.0,5.0,76,0.00,,,0.00,708,Wunderground v.1.15,2013-07-31 15:29:00,
2013-07-31 10:34:00,83.4,75.4,30.06,West,281,0.0,0.0,77,0.00,,,0.00,717,Wunderground v.1.15,2013-07-31 15:34:00,
2013-07-31 10:39:00,83.9,75.5,30.05,West,281,0.0,0.0,76,0.00,,,0.00,735,Wunderground v.1.15,2013-07-31 15:39:00,
2013-07-31 10:45:00,84.3,75.5,30.05,WNW,285,0.0,3.0,75,0.00,,,0.00,745,Wunderground v.1.15,2013-07-31 15:45:00,
2013-07-31 10:50:00,84.5,75.7,30.05,West,260,0.0,3.0,75,0.00,,,0.00,754,Wunderground v.1.15,2013-07-31 15:50:00,
2013-07-31 10:56:00,84.4,75.6,30.05,SW,231,1.0,7.0,75,0.00,,,0.00,766,Wunderground v.1.15,2013-07-31 15:56:00,
2013-07-31 11:01:00,84.5,75.7,30.06,WSW,254,1.0,2.0,75,0.00,,,0.00,777,Wunderground v.1.15,2013-07-31 16:01:00,
2013-07-31 11:07:00,84.6,75.8,30.05,WSW,240,0.0,2.0,75,0.00,,,0.00,789,Wunderground v.1.15,2013-07-31 16:07:00,
2013-07-31 11:12:00,85.1,76.3,30.05,SW,223,0.0,0.0,75,0.00,,,0.00,800,Wunderground v.1.15,2013-07-31 16:12:00,
2013-07-31 11:18:00,85.4,76.2,30.05,WSW,237,0.0,1.0,74,0.00,,,0.00,810,Wunderground v.1.15,2013-07-31 16:18:00,
2013-07-31 11:23:00,85.3,76.1,30.05,WSW,254,1.0,1.0,74,0.00,,,0.00,823,Wunderground v.1.15,2013-07-31 16:23:00,
2013-07-31 11:29:00,85.6,76.4,30.05,SW,217,1.0,4.0,74,0.00,,,0.00,831,Wunderground v.1.15,2013-07-31 16:29:00,
2013-07-31 11:34:00,86.0,76.3,30.04,West,269,0.0,0.0,73,0.00,,,0.00,520,Wunderground v.1.15,2013-07-31 16:34:00,
2013-07-31 11:39:00,86.1,76.8,30.04,West,268,0.0,0.0,74,0.00,,,0.00,851,Wunderground v.1.15,2013-07-31 16:39:00,
2013-07-31 11:45:00,86.4,76.7,30.04,WSW,258,0.0,0.0,73,0.00,,,0.00,860,Wunderground v.1.15,2013-07-31 16:45:00,
2013-07-31 11:50:00,86.5,75.5,30.04,WSW,257,0.0,0.0,70,0.00,,,0.00,867,Wunderground v.1.15,2013-07-31 16:50:00,
2013-07-31 11:55:00,86.3,75.8,30.04,WNW,298,0.0,2.0,71,0.00,,,0.00,879,Wunderground v.1.15,2013-07-31 16:55:00,
2013-07-31 12:00:00,86.4,75.9,30.04,North,10,0.0,2.0,71,0.00,,,0.00,889,Wunderground v.1.15,2013-07-31 17:00:00,
2013-07-31 12:06:00,86.6,75.6,30.04,WNW,292,0.0,3.0,70,0.00,,,0.00,896,Wunderground v.1.15,2013-07-31 17:06:00,
2013-07-31 12:11:00,86.7,76.2,30.04,WSW,244,0.0,0.0,71,0.00,,,0.00,879,Wunderground v.1.15,2013-07-31 17:11:00,
2013-07-31 12:17:00,87.1,76.5,30.03,WNW,290,1.0,4.0,71,0.00,,,0.00,956,Wunderground v.1.15,2013-07-31 17:17:00,
2013-07-31 12:22:00,86.9,75.9,30.03,West,276,1.0,1.0,70,0.00,,,0.00,926,Wunderground v.1.15,2013-07-31 17:22:00,
2013-07-31 12:27:00,87.0,76.5,30.03,SW,232,1.0,3.0,71,0.00,,,0.00,956,Wunderground v.1.15,2013-07-31 17:27:00,
2013-07-31 12:32:00,87.2,75.8,30.03,WSW,254,1.0,4.0,69,0.00,,,0.00,956,Wunderground v.1.15,2013-07-31 17:32:00,
2013-07-31 12:37:00,87.5,76.5,30.03,WSW,248,1.0,4.0,70,0.00,,,0.00,949,Wunderground v.1.15,2013-07-31 17:37:00,
2013-07-31 12:42:00,87.5,76.1,30.02,SW,233,1.0,1.0,69,0.00,,,0.00,972,Wunderground v.1.15,2013-07-31 17:42:00,
2013-07-31 12:47:00,87.8,77.6,30.02,WSW,239,1.0,1.0,72,0.00,,,0.00,1032,Wunderground v.1.15,2013-07-31 17:47:00,
2013-07-31 12:53:00,87.9,76.5,30.02,WSW,252,1.0,1.0,69,0.00,,,0.00,979,Wunderground v.1.15,2013-07-31 17:53:00,
2013-07-31 12:58:00,88.2,77.6,30.02,WSW,242,1.0,1.0,71,0.00,,,0.00,990,Wunderground v.1.15,2013-07-31 17:58:00,
2013-07-31 13:03:00,88.3,76.8,30.02,WSW,250,1.0,5.0,69,0.00,,,0.00,953,Wunderground v.1.15,2013-07-31 18:03:00,
2013-07-31 13:08:00,88.2,76.3,30.02,NW,308,0.0,5.0,68,0.00,,,0.00,886,Wunderground v.1.15,2013-07-31 18:08:00,
2013-07-31 13:13:00,88.3,76.4,30.01,NW,306,0.0,0.0,68,0.00,,,0.00,1021,Wunderground v.1.15,2013-07-31 18:13:00,
2013-07-31 13:19:00,88.3,76.4,30.01,NNW,331,0.0,2.0,68,0.00,,,0.00,1095,Wunderground v.1.15,2013-07-31 18:19:00,
2013-07-31 13:24:00,88.5,76.6,30.01,NW,314,0.0,1.0,68,0.00,,,0.00,1065,Wunderground v.1.15,2013-07-31 18:24:00,
2013-07-31 13:29:00,88.8,76.0,30.01,NW,310,0.0,5.0,66,0.00,,,0.00,1042,Wunderground v.1.15,2013-07-31 18:29:00,
2013-07-31 13:34:00,88.7,75.9,30.01,NW,323,0.0,0.0,66,0.00,,,0.00,1109,Wunderground v.1.15,2013-07-31 18:34:00,
2013-07-31 13:39:00,89.0,76.6,30.00,WNW,292,0.0,0.0,67,0.00,,,0.00,1058,Wunderground v.1.15,2013-07-31 18:39:00,
2013-07-31 13:44:00,89.6,77.2,30.00,West,279,0.0,1.0,67,0.00,,,0.00,640,Wunderground v.1.15,2013-07-31 18:44:00,
2013-07-31 13:49:00,90.1,76.7,30.00,West,279,0.0,1.0,65,0.00,,,0.00,1002,Wunderground v.1.15,2013-07-31 18:49:00,
2013-07-31 13:54:00,90.1,78.1,30.00,SW,227,0.0,8.0,68,0.00,,,0.00,1007,Wunderground v.1.15,2013-07-31 18:54:00,
2013-07-31 13:59:00,90.1,77.2,30.00,SW,229,0.0,8.0,66,0.00,,,0.00,1013,Wunderground v.1.15,2013-07-31 18:59:00,
2013-07-31 14:03:00,90.2,76.8,30.00,SW,219,0.0,0.0,65,0.00,,,0.00,1032,Wunderground v.1.15,2013-07-31 19:03:00,
2013-07-31 14:08:00,90.0,76.6,29.99,West,275,0.0,2.0,65,0.00,,,0.00,951,Wunderground v.1.15,2013-07-31 19:08:00,
2013-07-31 14:13:00,89.3,76.9,29.99,West,281,0.0,1.0,67,0.00,,,0.00,993,Wunderground v.1.15,2013-07-31 19:13:00,
2013-07-31 14:19:00,89.7,77.3,29.99,West,277,0.0,1.0,67,0.00,,,0.00,497,Wunderground v.1.15,2013-07-31 19:19:00,
2013-07-31 14:24:00,90.3,77.4,29.99,SW,215,0.0,0.0,66,0.00,,,0.00,977,Wunderground v.1.15,2013-07-31 19:24:00,
2013-07-31 14:29:00,90.5,76.2,29.99,West,269,0.0,4.0,63,0.00,,,0.00,949,Wunderground v.1.15,2013-07-31 19:29:00,
2013-07-31 14:35:00,90.6,74.8,29.99,West,271,0.0,0.0,60,0.00,,,0.00,909,Wunderground v.1.15,2013-07-31 19:35:00,
2013-07-31 14:41:00,90.4,75.6,29.98,SW,235,1.0,1.0,62,0.00,,,0.00,891,Wunderground v.1.15,2013-07-31 19:41:00,
2013-07-31 14:46:00,90.4,75.6,29.98,West,271,1.0,5.0,62,0.00,,,0.00,928,Wunderground v.1.15,2013-07-31 19:46:00,
2013-07-31 14:51:00,90.2,75.4,29.98,WSW,239,1.0,1.0,62,0.00,,,0.00,921,Wunderground v.1.15,2013-07-31 19:51:00,
2013-07-31 14:56:00,90.3,75.0,29.98,WSW,252,1.0,4.0,61,0.00,,,0.00,921,Wunderground v.1.15,2013-07-31 19:56:00,
2013-07-31 15:02:00,90.2,75.4,29.98,WSW,251,0.0,1.0,62,0.00,,,0.00,907,Wunderground v.1.15,2013-07-31 20:02:00,
2013-07-31 15:07:00,90.6,75.8,29.98,SW,233,0.0,1.0,62,0.00,,,0.00,926,Wunderground v.1.15,2013-07-31 20:07:00,
2013-07-31 15:12:00,90.3,75.5,29.97,WSW,250,1.0,1.0,62,0.00,,,0.00,207,Wunderground v.1.15,2013-07-31 20:12:00,
2013-07-31 15:18:00,89.8,76.0,29.97,WSW,250,1.0,1.0,64,0.00,,,0.00,193,Wunderground v.1.15,2013-07-31 20:18:00,
2013-07-31 15:24:00,89.8,77.4,29.97,WSW,250,0.0,0.0,67,0.00,,,0.00,854,Wunderground v.1.15,2013-07-31 20:24:00,
2013-07-31 15:29:00,90.3,75.0,29.96,NW,304,0.0,3.0,61,0.00,,,0.00,777,Wunderground v.1.15,2013-07-31 20:29:00,
2013-07-31 15:35:00,90.4,75.1,29.96,West,273,1.0,8.0,61,0.00,,,0.00,176,Wunderground v.1.15,2013-07-31 20:35:00,
2013-07-31 15:41:00,90.2,75.4,29.96,West,275,1.0,1.0,62,0.00,,,0.00,800,Wunderground v.1.15,2013-07-31 20:41:00,
2013-07-31 15:46:00,90.6,75.8,29.96,West,276,0.0,4.0,62,0.00,,,0.00,747,Wunderground v.1.15,2013-07-31 20:46:00,
2013-07-31 15:51:00,90.9,75.6,29.96,WNW,294,1.0,6.0,61,0.00,,,0.00,721,Wunderground v.1.15,2013-07-31 20:51:00,
2013-07-31 15:56:00,90.9,75.1,29.96,SW,231,2.0,6.0,60,0.00,,,0.00,698,Wunderground v.1.15,2013-07-31 20:56:00,
2013-07-31 16:01:00,90.8,74.5,29.96,NW,310,3.0,3.0,59,0.00,,,0.00,714,Wunderground v.1.15,2013-07-31 21:01:00,
2013-07-31 16:07:00,90.6,74.3,29.95,West,267,2.0,6.0,59,0.00,,,0.00,700,Wunderground v.1.15,2013-07-31 21:07:00,
2013-07-31 16:13:00,90.9,75.1,29.95,West,267,1.0,1.0,60,0.00,,,0.00,195,Wunderground v.1.15,2013-07-31 21:13:00,
2013-07-31 16:18:00,90.4,75.6,29.95,NW,314,0.0,1.0,62,0.00,,,0.00,158,Wunderground v.1.15,2013-07-31 21:18:00,
2013-07-31 16:23:00,90.3,76.0,29.94,NW,314,0.0,0.0,63,0.00,,,0.00,659,Wunderground v.1.15,2013-07-31 21:23:00,
2013-07-31 16:29:00,90.8,75.5,29.95,West,279,0.0,0.0,61,0.00,,,0.00,652,Wunderground v.1.15,2013-07-31 21:29:00,
2013-07-31 16:35:00,91.2,75.9,29.94,West,280,0.0,0.0,61,0.00,,,0.00,615,Wunderground v.1.15,2013-07-31 21:35:00,
2013-07-31 16:40:00,91.5,74.6,29.94,West,280,0.0,0.0,58,0.00,,,0.00,598,Wunderground v.1.15,2013-07-31 21:40:00,
2013-07-31 16:47:00,91.3,76.0,29.94,West,280,0.0,0.0,61,0.00,,,0.00,610,Wunderground v.1.15,2013-07-31 21:47:00,
2013-07-31 16:52:00,91.4,74.5,29.94,NW,308,1.0,4.0,58,0.00,,,0.00,592,Wunderground v.1.15,2013-07-31 21:52:00,
2013-07-31 16:58:00,91.3,73.9,29.93,West,277,1.0,4.0,57,0.00,,,0.00,557,Wunderground v.1.15,2013-07-31 21:58:00,
2013-07-31 17:04:00,91.5,75.1,29.93,West,277,0.0,1.0,59,0.00,,,0.00,531,Wunderground v.1.15,2013-07-31 22:04:00,
2013-07-31 17:10:00,90.9,74.1,29.93,West,277,0.0,2.0,58,0.00,,,0.00,141,Wunderground v.1.15,2013-07-31 22:10:00,
2013-07-31 17:15:00,90.6,73.8,29.93,West,277,0.0,0.0,58,0.00,,,0.00,149,Wunderground v.1.15,2013-07-31 22:15:00,
2013-07-31 17:21:00,90.4,74.1,29.93,West,277,0.0,0.0,59,0.00,,,0.00,476,Wunderground v.1.15,2013-07-31 22:21:00,
2013-07-31 17:26:00,90.6,75.8,29.93,West,277,0.0,0.0,62,0.00,,,0.00,471,Wunderground v.1.15,2013-07-31 22:26:00,
2013-07-31 17:32:00,91.0,75.2,29.93,West,275,0.0,0.0,60,0.00,,,0.00,452,Wunderground v.1.15,2013-07-31 22:32:00,
2013-07-31 17:37:00,91.2,75.4,29.92,West,270,0.0,0.0,60,0.00,,,0.00,408,Wunderground v.1.15,2013-07-31 22:37:00,
2013-07-31 17:42:00,91.2,74.9,29.92,West,261,0.0,2.0,59,0.00,,,0.00,380,Wunderground v.1.15,2013-07-31 22:42:00,
2013-07-31 17:48:00,90.9,74.6,29.92,West,264,1.0,2.0,59,0.00,,,0.00,369,Wunderground v.1.15,2013-07-31 22:48:00,
2013-07-31 17:53:00,90.9,74.1,29.92,WSW,256,0.0,1.0,58,0.00,,,0.00,76,Wunderground v.1.15,2013-07-31 22:53:00,
2013-07-31 17:58:00,90.4,73.6,29.92,WSW,254,0.0,1.0,58,0.00,,,0.00,81,Wunderground v.1.15,2013-07-31 22:58:00,
2013-07-31 18:04:00,89.7,73.5,29.92,WSW,254,0.0,0.0,59,0.00,,,0.00,105,Wunderground v.1.15,2013-07-31 23:04:00,
2013-07-31 18:09:00,89.5,73.8,29.92,WSW,254,0.0,0.0,60,0.00,,,0.00,281,Wunderground v.1.15,2013-07-31 23:09:00,
2013-07-31 18:14:00,89.5,74.3,29.92,WSW,254,0.0,0.0,61,0.00,,,0.00,267,Wunderground v.1.15,2013-07-31 23:14:00,
2013-07-31 18:19:00,89.9,74.6,29.92,WSW,254,0.0,0.0,61,0.00,,,0.00,251,Wunderground v.1.15,2013-07-31 23:19:00,
2013-07-31 18:24:00,90.3,75.5,29.92,WSW,254,0.0,0.0,62,0.00,,,0.00,229,Wunderground v.1.15,2013-07-31 23:24:00,
2013-07-31 18:29:00,90.4,76.1,29.92,WSW,250,0.0,0.0,63,0.00,,,0.00,209,Wunderground v.1.15,2013-07-31 23:29:00,
2013-07-31 18:34:00,90.3,76.5,29.92,WSW,250,0.0,0.0,64,0.00,,,0.00,192,Wunderground v.1.15,2013-07-31 23:34:00,
2013-07-31 18:40:00,90.3,76.5,29.92,WSW,254,0.0,0.0,64,0.00,,,0.00,171,Wunderground v.1.15,2013-07-31 23:40:00,
2013-07-31 18:45:00,90.5,77.6,29.93,WSW,254,0.0,0.0,66,0.00,,,0.00,149,Wunderground v.1.15,2013-07-31 23:45:00,
2013-07-31 18:50:00,90.3,76.9,29.93,WSW,254,0.0,0.0,65,0.00,,,0.00,132,Wunderground v.1.15,2013-07-31 23:50:00,
2013-07-31 18:56:00,90.0,76.6,29.93,WSW,254,0.0,0.0,65,0.00,,,0.00,113,Wunderground v.1.15,2013-07-31 23:56:00,
2013-07-31 19:01:00,89.8,76.9,29.94,WSW,254,0.0,0.0,66,0.00,,,0.00,74,Wunderground v.1.15,2013-08-01 00:01:00,
2013-07-31 19:07:00,89.4,77.4,29.94,WSW,254,0.0,0.0,68,0.00,,,0.00,49,Wunderground v.1.15,2013-08-01 00:07:00,
2013-07-31 19:13:00,88.9,77.8,29.94,WSW,254,0.0,0.0,70,0.00,,,0.00,44,Wunderground v.1.15,2013-08-01 00:13:00,
2013-07-31 19:19:00,88.6,78.4,29.94,WSW,254,0.0,0.0,72,0.00,,,0.00,42,Wunderground v.1.15,2013-08-01 00:19:00,
2013-07-31 19:25:00,88.1,78.8,29.94,WSW,254,0.0,0.0,74,0.00,,,0.00,32,Wunderground v.1.15,2013-08-01 00:25:00,
2013-07-31 19:30:00,87.5,78.2,29.94,WSW,254,0.0,0.0,74,0.00,,,0.00,26,Wunderground v.1.15,2013-08-01 00:30:00,
2013-07-31 19:35:00,87.1,78.2,29.93,WSW,254,0.0,0.0,75,0.00,,,0.00,21,Wunderground v.1.15,2013-08-01 00:35:00,
2013-07-31 19:40:00,86.6,77.7,29.93,WSW,254,0.0,0.0,75,0.00,,,0.00,16,Wunderground v.1.15,2013-08-01 00:40:00,
2013-07-31 19:45:00,85.9,77.8,29.94,WSW,254,0.0,0.0,77,0.00,,,0.00,12,Wunderground v.1.15,2013-08-01 00:45:00,
2013-07-31 19:51:00,85.4,77.8,29.94,WSW,254,0.0,0.0,78,0.00,,,0.00,7,Wunderground v.1.15,2013-08-01 00:51:00,
2013-07-31 19:56:00,84.9,77.7,29.94,WSW,254,0.0,0.0,79,0.00,,,0.00,5,Wunderground v.1.15,2013-08-01 00:56:00,
2013-07-31 20:01:00,84.5,77.6,29.94,WSW,254,0.0,0.0,80,0.00,,,0.00,0,Wunderground v.1.15,2013-08-01 01:01:00,
2013-07-31 20:06:00,84.0,77.2,29.94,WSW,254,0.0,0.0,80,0.00,,,0.00,0,Wunderground v.1.15,2013-08-01 01:06:00,
2013-07-31 20:11:00,83.6,77.1,29.94,WSW,254,0.0,0.0,81,0.00,,,0.00,0,Wunderground v.1.15,2013-08-01 01:11:00,
2013-07-31 20:17:00,83.2,77.1,29.94,WSW,254,0.0,0.0,82,0.00,,,0.00,0,Wunderground v.1.15,2013-08-01 01:17:00,
2013-07-31 20:22:00,82.8,77.1,29.94,WSW,254,0.0,0.0,83,0.00,,,0.00,0,Wunderground v.1.15,2013-08-01 01:22:00,
2013-07-31 20:28:00,82.3,77.0,29.94,WSW,254,0.0,0.0,84,0.00,,,0.00,0,Wunderground v.1.15,2013-08-01 01:28:00,
2013-07-31 20:33:00,81.9,76.9,29.94,WSW,254,0.0,0.0,85,0.00,,,0.00,0,Wunderground v.1.15,2013-08-01 01:33:00,
2013-07-31 20:38:00,81.6,76.6,29.95,WSW,254,0.0,0.0,85,0.00,,,0.00,0,Wunderground v.1.15,2013-08-01 01:38:00,
2013-07-31 20:44:00,81.3,76.7,29.95,WSW,254,0.0,0.0,86,0.00,,,0.00,0,Wunderground v.1.15,2013-08-01 01:44:00,
2013-07-31 20:49:00,81.1,76.5,29.95,WSW,254,0.0,0.0,86,0.00,,,0.00,0,Wunderground v.1.15,2013-08-01 01:49:00,
2013-07-31 20:54:00,80.8,76.6,29.95,WSW,254,0.0,0.0,87,0.00,,,0.00,0,Wunderground v.1.15,2013-08-01 01:54:00,
2013-07-31 20:59:00,80.5,76.3,29.94,WSW,254,0.0,0.0,87,0.00,,,0.00,0,Wunderground v.1.15,2013-08-01 01:59:00,
2013-07-31 21:05:00,80.3,76.1,29.95,WSW,254,0.0,0.0,87,0.00,,,0.00,0,Wunderground v.1.15,2013-08-01 02:05:00,
2013-07-31 21:11:00,80.1,76.2,29.94,WSW,254,0.0,0.0,88,0.00,,,0.00,0,Wunderground v.1.15,2013-08-01 02:11:00,
2013-07-31 21:17:00,80.0,76.1,29.94,WSW,254,0.0,0.0,88,0.00,,,0.00,0,Wunderground v.1.15,2013-08-01 02:17:00,
2013-07-31 21:23:00,79.8,75.9,29.95,WSW,254,0.0,0.0,88,0.00,,,0.00,0,Wunderground v.1.15,2013-08-01 02:23:00,
2013-07-31 21:28:00,79.6,75.7,29.95,WSW,254,0.0,0.0,88,0.00,,,0.00,0,Wunderground v.1.15,2013-08-01 02:28:00,
2013-07-31 21:33:00,79.4,75.5,29.95,WSW,254,0.0,0.0,88,0.00,,,0.00,0,Wunderground v.1.15,2013-08-01 02:33:00,
2013-07-31 21:39:00,79.3,75.8,29.95,WSW,254,0.0,0.0,89,0.00,,,0.00,0,Wunderground v.1.15,2013-08-01 02:39:00,
2013-07-31 21:44:00,79.3,75.8,29.95,WSW,254,0.0,0.0,89,0.00,,,0.00,0,Wunderground v.1.15,2013-08-01 02:44:00,
2013-07-31 21:49:00,79.2,75.7,29.95,WSW,254,0.0,0.0,89,0.00,,,0.00,0,Wunderground v.1.15,2013-08-01 02:49:00,
2013-07-31 21:54:00,79.1,75.2,29.95,WSW,254,0.0,0.0,88,0.00,,,0.00,0,Wunderground v.1.15,2013-08-01 02:54:00,
2013-07-31 21:59:00,79.0,75.5,29.95,WSW,254,0.0,0.0,89,0.00,,,0.00,0,Wunderground v.1.15,2013-08-01 02:59:00,
2013-07-31 22:04:00,78.9,75.4,29.95,WSW,254,0.0,0.0,89,0.00,,,0.00,0,Wunderground v.1.15,2013-08-01 03:04:00,
2013-07-31 22:10:00,78.7,75.2,29.95,WSW,254,0.0,0.0,89,0.00,,,0.00,0,Wunderground v.1.15,2013-08-01 03:10:00,
2013-07-31 22:15:00,78.7,75.2,29.96,WSW,254,0.0,0.0,89,0.00,,,0.00,0,Wunderground v.1.15,2013-08-01 03:15:00,
2013-07-31 22:21:00,78.7,75.5,29.96,WSW,254,0.0,0.0,90,0.00,,,0.00,0,Wunderground v.1.15,2013-08-01 03:21:00,
2013-07-31 22:26:00,78.6,75.4,29.96,WSW,254,0.0,0.0,90,0.00,,,0.00,0,Wunderground v.1.15,2013-08-01 03:26:00,
2013-07-31 22:31:00,78.5,75.3,29.96,WSW,254,0.0,0.0,90,0.00,,,0.00,0,Wunderground v.1.15,2013-08-01 03:31:00,
2013-07-31 22:37:00,78.4,75.2,29.95,WSW,254,0.0,0.0,90,0.00,,,0.00,0,Wunderground v.1.15,2013-08-01 03:37:00,
2013-07-31 22:42:00,78.4,75.2,29.95,WSW,254,0.0,0.0,90,0.00,,,0.00,0,Wunderground v.1.15,2013-08-01 03:42:00,
2013-07-31 22:47:00,78.4,75.6,29.95,WSW,254,0.0,0.0,91,0.00,,,0.00,0,Wunderground v.1.15,2013-08-01 03:47:00,
2013-07-31 22:53:00,78.3,75.5,29.96,WSW,254,0.0,0.0,91,0.00,,,0.00,0,Wunderground v.1.15,2013-08-01 03:53:00,
2013-07-31 22:59:00,78.1,74.9,29.96,WSW,254,0.0,0.0,90,0.00,,,0.00,0,Wunderground v.1.15,2013-08-01 03:59:00,
2013-07-31 23:02:00,78.0,74.8,29.96,WSW,254,0.0,0.0,90,0.00,,,0.00,0,Wunderground v.1.15,2013-08-01 04:02:00,
2013-07-31 23:03:00,77.9,74.7,29.96,WSW,254,0.0,0.0,90,0.00,,,0.00,0,Wunderground v.1.15,2013-08-01 04:03:00,
2013-07-31 23:04:00,77.8,74.6,29.96,WSW,254,0.0,0.0,90,0.00,,,0.00,0,Wunderground v.1.15,2013-08-01 04:04:00,
2013-07-31 23:05:00,77.8,74.6,29.96,WSW,254,0.0,0.0,90,0.00,,,0.00,0,Wunderground v.1.15,2013-08-01 04:05:00,
2013-07-31 23:10:00,77.6,74.4,29.96,WSW,254,0.0,0.0,90,0.00,,,0.00,0,Wunderground v.1.15,2013-08-01 04:10:00,
2013-07-31 23:15:00,77.5,74.7,29.97,WSW,254,0.0,0.0,91,0.00,,,0.00,0,Wunderground v.1.15,2013-08-01 04:15:00,
2013-07-31 23:20:00,77.4,74.2,29.97,WSW,254,0.0,0.0,90,0.00,,,0.00,0,Wunderground v.1.15,2013-08-01 04:20:00,
2013-07-31 23:26:00,77.2,74.4,29.97,WSW,254,0.0,0.0,91,0.00,,,0.00,0,Wunderground v.1.15,2013-08-01 04:26:00,
2013-07-31 23:31:00,77.0,74.2,29.97,WSW,254,0.0,0.0,91,0.00,,,0.00,0,Wunderground v.1.15,2013-08-01 04:31:00,
2013-07-31 23:36:00,77.0,74.2,29.97,WSW,254,0.0,0.0,91,0.00,,,0.00,0,Wunderground v.1.15,2013-08-01 04:36:00,
2013-07-31 23:42:00,77.0,74.5,29.97,WSW,254,0.0,0.0,92,0.00,,,0.00,0,Wunderground v.1.15,2013-08-01 04:42:00,
2013-07-31 23:47:00,77.0,74.8,29.96,WSW,254,0.0,0.0,93,0.00,,,0.00,0,Wunderground v.1.15,2013-08-01 04:47:00,
2013-07-31 23:52:00,77.1,74.9,29.96,WSW,254,0.0,0.0,93,0.00,,,0.00,0,Wunderground v.1.15,2013-08-01 04:52:00,
2013-07-31 23:58:00,77.1,74.9,29.96,WSW,254,0.0,0.0,93,0.00,,,0.00,0,Wunderground v.1.15,2013-08-01 04:58:00,